South Beach, OR

10:14 PM PST on January 26, 2015 (GMT -0800)
APRSWXNET South Beach OR US | Change Station
CLOSE
Current Station
Personal Weather Station
Location: South Beach, OR
Elevation: 65 ft
Nearby Weather Stations

Elev 65 ft 44.53 °N, 124.07 °W | Updated 32 minutes ago

Mostly Cloudy
Mostly Cloudy
53 °F
Feels Like 53 °F
N
1
Wind Variable Wind from SSW
Gusts 4.0 mph

Today
High -- | Low -- °F
--% Chance of Precip.
Yesterday
High -- | Low -- °F
Precip. -- in
7:41 AM 5:16 PM
Waxing Crescent, 51% visible
Pressure 30.03 in
Visibility 7.0 miles
Clouds Scattered Clouds 600 ft
Overcast 1300 ft
Dew Point 51 °F
Humidity 94%
Rainfall -999.00 in
Snow Depth Not available.
UV 0 out of 12
Pollen 3.30 out of 12
Air Quality Not available.
Flu Activity Not available.
METAR KONP 270555Z AUTO 00000KT 7SM SCT006 OVC013 11/10 A3003 RMK AO2

More Conditions Fewer Conditions

Pressure 30.03 in
Visibility 7.0 miles
Clouds Scattered Clouds 600 ft
Overcast 1300 ft
Dew Point 51 °F
Humidity 94%
Rainfall -999.00 in
Snow Depth Not available.
UV 0 out of 12
Pollen 3.30 out of 12
Air Quality Not available.
Flu Activity Not available.
METAR KONP 270555Z AUTO 00000KT 7SM SCT006 OVC013 11/10 A3003 RMK AO2

More Conditions Fewer Conditions

10-Day Weather Forecast

Almanac

Astronomy

Jan. 26, 2015 Rise Set
Actual Time
Civil Twilight
Nautical Twilight
Astronomical Twilight
Moon
Length of Visible Light
Length of Day
Tomorrow will be .
, % of the Moon is Illuminated

Today's Extremes

State Highs State Lows

Community

WunderPhotos

Upload Photos

1,790,542 photos uploaded!

WunderBlogs® & News

Nearby

Air Quality

  Air Quality AQ Index Pollutant
Not available.

Snow Depth

Station Depth Elevation

Earthquake Activity

City Distance Mag. Time & Date
Minimum magnitude displayed is 2.5.

Coastal Water Temperatures

Place Temperature

Nearby Weather Stations